sensor_id;sensor_type;location;lat;lon;timestamp;temperature;humidity
33149;DHT22;19506;51.040;3.856;2023-02-28T15:28:35;17.50;99.90
33149;DHT22;19506;51.040;3.856;2023-02-28T15:31:03;17.30;99.90
33149;DHT22;19506;51.040;3.856;2023-02-28T15:33:58;17.60;99.90
33149;DHT22;19506;51.040;3.856;2023-02-28T15:36:33;17.60;99.90
33149;DHT22;19506;51.040;3.856;2023-02-28T15:39:23;17.70;99.90
33149;DHT22;19506;51.040;3.856;2023-02-28T15:41:51;17.70;99.90
33149;DHT22;19506;51.040;3.856;2023-02-28T15:44:24;17.80;99.90
33149;DHT22;19506;51.040;3.856;2023-02-28T15:47:04;18.00;99.90
33149;DHT22;19506;51.040;3.856;2023-02-28T15:49:44;17.80;99.90
33149;DHT22;19506;51.040;3.856;2023-02-28T15:52:15;17.80;99.90
33149;DHT22;19506;51.040;3.856;2023-02-28T15:54:43;17.80;99.90
33149;DHT22;19506;51.040;3.856;2023-02-28T15:57:25;17.80;99.90
33149;DHT22;19506;51.040;3.856;2023-02-28T16:00:00;17.80;99.90
33149;DHT22;19506;51.040;3.856;2023-02-28T16:02:36;17.80;99.90
33149;DHT22;19506;51.040;3.856;2023-02-28T16:07:36;17.90;99.90
33149;DHT22;19506;51.040;3.856;2023-02-28T16:10:01;18.00;99.90
33149;DHT22;19506;51.040;3.856;2023-02-28T16:12:30;18.00;99.90
33149;DHT22;19506;51.040;3.856;2023-02-28T16:15:02;18.00;99.90
33149;DHT22;19506;51.040;3.856;2023-02-28T16:17:33;18.00;99.90
33149;DHT22;19506;51.040;3.856;2023-02-28T16:19:59;18.00;99.90
33149;DHT22;19506;51.040;3.856;2023-02-28T16:22:25;17.90;99.90
33149;DHT22;19506;51.040;3.856;2023-02-28T16:24:51;17.90;99.90
33149;DHT22;19506;51.040;3.856;2023-02-28T16:27:21;17.90;99.90
33149;DHT22;19506;51.040;3.856;2023-02-28T16:29:48;17.80;99.90
33149;DHT22;19506;51.040;3.856;2023-02-28T16:32:15;17.70;99.90
33149;DHT22;19506;51.040;3.856;2023-02-28T16:34:42;17.70;99.90
33149;DHT22;19506;51.040;3.856;2023-02-28T16:37:12;17.70;99.90
33149;DHT22;19506;51.040;3.856;2023-02-28T16:39:38;17.60;99.90
33149;DHT22;19506;51.040;3.856;2023-02-28T16:42:03;17.60;99.90
33149;DHT22;19506;51.040;3.856;2023-02-28T16:44:33;17.60;99.90
33149;DHT22;19506;51.040;3.856;2023-02-28T16:47:03;17.60;99.90
33149;DHT22;19506;51.040;3.856;2023-02-28T16:49:29;17.80;99.90
33149;DHT22;19506;51.040;3.856;2023-02-28T16:51:55;17.80;99.90
33149;DHT22;19506;51.040;3.856;2023-02-28T16:54:21;17.80;99.90
33149;DHT22;19506;51.040;3.856;2023-02-28T16:56:48;17.70;99.90
33149;DHT22;19506;51.040;3.856;2023-02-28T16:59:18;17.80;99.90
33149;DHT22;19506;51.040;3.856;2023-02-28T17:01:44;17.80;99.90
33149;DHT22;19506;51.040;3.856;2023-02-28T17:04:11;17.80;99.90
33149;DHT22;19506;51.040;3.856;2023-02-28T17:06:37;17.70;99.90
33149;DHT22;19506;51.040;3.856;2023-02-28T17:09:03;17.70;99.90
33149;DHT22;19506;51.040;3.856;2023-02-28T17:11:29;17.70;99.90
33149;DHT22;19506;51.040;3.856;2023-02-28T17:13:54;17.60;99.90
33149;DHT22;19506;51.040;3.856;2023-02-28T17:16:29;17.60;99.90
33149;DHT22;19506;51.040;3.856;2023-02-28T17:18:58;17.60;99.90
33149;DHT22;19506;51.040;3.856;2023-02-28T17:21:24;17.60;99.90
33149;DHT22;19506;51.040;3.856;2023-02-28T17:23:49;17.60;99.90
33149;DHT22;19506;51.040;3.856;2023-02-28T17:26:18;17.60;99.90
33149;DHT22;19506;51.040;3.856;2023-02-28T17:28:46;17.60;99.90
33149;DHT22;19506;51.040;3.856;2023-02-28T17:31:12;17.80;99.90
33149;DHT22;19506;51.040;3.856;2023-02-28T17:33:37;18.00;99.90
33149;DHT22;19506;51.040;3.856;2023-02-28T17:36:03;18.20;99.90
33149;DHT22;19506;51.040;3.856;2023-02-28T17:38:29;18.40;99.90
33149;DHT22;19506;51.040;3.856;2023-02-28T17:40:55;18.50;99.90
33149;DHT22;19506;51.040;3.856;2023-02-28T17:43:26;18.80;99.90
33149;DHT22;19506;51.040;3.856;2023-02-28T17:45:52;18.90;99.90
33149;DHT22;19506;51.040;3.856;2023-02-28T17:48:18;19.00;99.90
33149;DHT22;19506;51.040;3.856;2023-02-28T17:50:44;19.00;99.90
33149;DHT22;19506;51.040;3.856;2023-02-28T17:53:10;19.00;99.90
33149;DHT22;19506;51.040;3.856;2023-02-28T17:55:35;18.90;99.90
33149;DHT22;19506;51.040;3.856;2023-02-28T17:58:02;18.90;99.90
33149;DHT22;19506;51.040;3.856;2023-02-28T18:00:28;18.80;99.90
33149;DHT22;19506;51.040;3.856;2023-02-28T18:02:54;18.80;99.90
33149;DHT22;19506;51.040;3.856;2023-02-28T18:05:20;18.80;99.90
33149;DHT22;19506;51.040;3.856;2023-02-28T18:07:45;18.80;99.90
33149;DHT22;19506;51.040;3.856;2023-02-28T18:10:17;18.70;99.90
33149;DHT22;19506;51.040;3.856;2023-02-28T18:12:46;18.70;99.90
33149;DHT22;19506;51.040;3.856;2023-02-28T18:15:11;18.70;99.90
33149;DHT22;19506;51.040;3.856;2023-02-28T18:17:37;18.60;99.90
33149;DHT22;19506;51.040;3.856;2023-02-28T18:20:03;18.60;99.90
33149;DHT22;19506;51.040;3.856;2023-02-28T18:22:30;18.50;99.90
33149;DHT22;19506;51.040;3.856;2023-02-28T18:24:55;18.50;99.90
33149;DHT22;19506;51.040;3.856;2023-02-28T18:27:21;18.40;99.90
33149;DHT22;19506;51.040;3.856;2023-02-28T18:29:47;18.40;99.90
33149;DHT22;19506;51.040;3.856;2023-02-28T18:32:14;18.40;99.90
33149;DHT22;19506;51.040;3.856;2023-02-28T18:34:39;18.40;99.90
33149;DHT22;19506;51.040;3.856;2023-02-28T18:37:05;18.30;99.90
33149;DHT22;19506;51.040;3.856;2023-02-28T18:39:31;18.30;99.90
33149;DHT22;19506;51.040;3.856;2023-02-28T18:41:57;18.30;99.90
33149;DHT22;19506;51.040;3.856;2023-02-28T18:44:22;18.40;99.90
33149;DHT22;19506;51.040;3.856;2023-02-28T18:46:49;18.30;99.90
33149;DHT22;19506;51.040;3.856;2023-02-28T18:49:15;18.30;99.90
33149;DHT22;19506;51.040;3.856;2023-02-28T18:51:41;18.30;99.90
33149;DHT22;19506;51.040;3.856;2023-02-28T18:54:10;18.30;99.90
33149;DHT22;19506;51.040;3.856;2023-02-28T18:56:37;18.20;99.90
33149;DHT22;19506;51.040;3.856;2023-02-28T18:59:02;18.20;99.90
33149;DHT22;19506;51.040;3.856;2023-02-28T19:01:29;18.10;99.90
33149;DHT22;19506;51.040;3.856;2023-02-28T19:03:58;18.10;99.90
33149;DHT22;19506;51.040;3.856;2023-02-28T19:06:28;18.10;99.90
33149;DHT22;19506;51.040;3.856;2023-02-28T19:08:59;18.00;99.90
33149;DHT22;19506;51.040;3.856;2023-02-28T19:11:26;18.10;99.90
33149;DHT22;19506;51.040;3.856;2023-02-28T19:13:52;18.00;99.90
33149;DHT22;19506;51.040;3.856;2023-02-28T19:16:19;18.00;99.90
33149;DHT22;19506;51.040;3.856;2023-02-28T19:18:46;18.00;99.90
33149;DHT22;19506;51.040;3.856;2023-02-28T19:21:14;18.00;99.90
33149;DHT22;19506;51.040;3.856;2023-02-28T19:23:40;17.90;99.90
33149;DHT22;19506;51.040;3.856;2023-02-28T19:26:07;17.90;99.90
33149;DHT22;19506;51.040;3.856;2023-02-28T19:28:34;17.90;99.90
33149;DHT22;19506;51.040;3.856;2023-02-28T19:31:01;17.90;99.90
33149;DHT22;19506;51.040;3.856;2023-02-28T19:33:26;17.90;99.90
33149;DHT22;19506;51.040;3.856;2023-02-28T19:35:52;17.90;99.90
33149;DHT22;19506;51.040;3.856;2023-02-28T19:38:18;17.90;99.90
33149;DHT22;19506;51.040;3.856;2023-02-28T19:40:43;17.90;99.90
33149;DHT22;19506;51.040;3.856;2023-02-28T19:43:09;17.90;99.90
33149;DHT22;19506;51.040;3.856;2023-02-28T19:45:36;17.90;99.90
33149;DHT22;19506;51.040;3.856;2023-02-28T19:48:02;17.90;99.90
33149;DHT22;19506;51.040;3.856;2023-02-28T19:50:28;18.10;99.90
33149;DHT22;19506;51.040;3.856;2023-02-28T19:52:54;18.10;99.90
33149;DHT22;19506;51.040;3.856;2023-02-28T19:55:20;18.30;99.90
33149;DHT22;19506;51.040;3.856;2023-02-28T19:57:46;18.20;99.90
33149;DHT22;19506;51.040;3.856;2023-02-28T20:00:13;17.90;99.90
33149;DHT22;19506;51.040;3.856;2023-02-28T20:02:40;17.70;99.90
33149;DHT22;19506;51.040;3.856;2023-02-28T20:05:06;17.50;99.90
33149;DHT22;19506;51.040;3.856;2023-02-28T20:07:33;17.40;99.90
33149;DHT22;19506;51.040;3.856;2023-02-28T20:09:59;17.30;99.90
33149;DHT22;19506;51.040;3.856;2023-02-28T20:12:25;17.40;99.90
33149;DHT22;19506;51.040;3.856;2023-02-28T20:14:52;17.60;99.90
33149;DHT22;19506;51.040;3.856;2023-02-28T20:17:21;17.70;99.90
33149;DHT22;19506;51.040;3.856;2023-02-28T20:19:47;17.80;99.90
33149;DHT22;19506;51.040;3.856;2023-02-28T20:22:14;17.90;99.90
33149;DHT22;19506;51.040;3.856;2023-02-28T20:24:40;17.90;99.90
33149;DHT22;19506;51.040;3.856;2023-02-28T20:27:05;17.50;99.90
33149;DHT22;19506;51.040;3.856;2023-02-28T20:29:32;17.30;99.90
33149;DHT22;19506;51.040;3.856;2023-02-28T20:31:58;17.30;99.90
33149;DHT22;19506;51.040;3.856;2023-02-28T20:34:23;17.40;99.90
33149;DHT22;19506;51.040;3.856;2023-02-28T20:36:50;17.70;99.90
33149;DHT22;19506;51.040;3.856;2023-02-28T20:39:16;18.00;99.90
33149;DHT22;19506;51.040;3.856;2023-02-28T20:41:42;18.20;99.90
33149;DHT22;19506;51.040;3.856;2023-02-28T20:44:11;18.40;99.90
33149;DHT22;19506;51.040;3.856;2023-02-28T20:46:36;18.40;99.90
33149;DHT22;19506;51.040;3.856;2023-02-28T20:49:02;18.40;99.90
33149;DHT22;19506;51.040;3.856;2023-02-28T20:51:28;18.30;99.90
33149;DHT22;19506;51.040;3.856;2023-02-28T20:53:54;18.20;99.90
33149;DHT22;19506;51.040;3.856;2023-02-28T20:56:21;18.20;99.90
33149;DHT22;19506;51.040;3.856;2023-02-28T20:58:50;18.20;99.90
33149;DHT22;19506;51.040;3.856;2023-02-28T21:01:19;18.20;99.90
33149;DHT22;19506;51.040;3.856;2023-02-28T21:03:52;18.10;99.90
33149;DHT22;19506;51.040;3.856;2023-02-28T21:06:21;18.10;99.90
33149;DHT22;19506;51.040;3.856;2023-02-28T21:08:47;18.10;99.90
33149;DHT22;19506;51.040;3.856;2023-02-28T21:11:15;18.10;99.90
33149;DHT22;19506;51.040;3.856;2023-02-28T21:13:42;18.10;99.90
33149;DHT22;19506;51.040;3.856;2023-02-28T21:16:12;18.10;99.90
33149;DHT22;19506;51.040;3.856;2023-02-28T21:18:38;18.00;99.90
33149;DHT22;19506;51.040;3.856;2023-02-28T21:21:07;18.10;99.90
33149;DHT22;19506;51.040;3.856;2023-02-28T21:23:33;18.00;99.90
33149;DHT22;19506;51.040;3.856;2023-02-28T21:26:18;17.90;99.90
33149;DHT22;19506;51.040;3.856;2023-02-28T21:28:56;17.90;99.90
33149;DHT22;19506;51.040;3.856;2023-02-28T21:31:23;17.90;99.90
33149;DHT22;19506;51.040;3.856;2023-02-28T21:33:52;17.90;99.90
33149;DHT22;19506;51.040;3.856;2023-02-28T21:36:21;17.80;99.90
33149;DHT22;19506;51.040;3.856;2023-02-28T21:38:49;17.80;99.90
33149;DHT22;19506;51.040;3.856;2023-02-28T21:41:20;17.70;99.90
33149;DHT22;19506;51.040;3.856;2023-02-28T21:43:46;17.70;99.90
33149;DHT22;19506;51.040;3.856;2023-02-28T21:46:15;17.70;99.90
33149;DHT22;19506;51.040;3.856;2023-02-28T21:48:41;17.60;99.90
33149;DHT22;19506;51.040;3.856;2023-02-28T21:51:11;17.60;99.90
33149;DHT22;19506;51.040;3.856;2023-02-28T21:53:38;17.50;99.90
33149;DHT22;19506;51.040;3.856;2023-02-28T21:56:07;17.50;99.90
33149;DHT22;19506;51.040;3.856;2023-02-28T21:58:33;17.40;99.90
33149;DHT22;19506;51.040;3.856;2023-02-28T22:01:23;17.40;99.90
33149;DHT22;19506;51.040;3.856;2023-02-28T22:03:49;17.30;99.90
33149;DHT22;19506;51.040;3.856;2023-02-28T22:06:18;17.30;99.90
33149;DHT22;19506;51.040;3.856;2023-02-28T22:08:47;17.20;99.90
33149;DHT22;19506;51.040;3.856;2023-02-28T22:11:14;17.20;99.90
33149;DHT22;19506;51.040;3.856;2023-02-28T22:13:41;17.20;99.90
33149;DHT22;19506;51.040;3.856;2023-02-28T22:16:12;17.20;99.90
33149;DHT22;19506;51.040;3.856;2023-02-28T22:18:39;17.10;99.90
33149;DHT22;19506;51.040;3.856;2023-02-28T22:21:05;17.10;99.90
33149;DHT22;19506;51.040;3.856;2023-02-28T22:23:31;17.00;99.90
33149;DHT22;19506;51.040;3.856;2023-02-28T22:25:59;17.10;99.90
33149;DHT22;19506;51.040;3.856;2023-02-28T22:28:25;17.20;99.90
33149;DHT22;19506;51.040;3.856;2023-02-28T22:30:52;17.30;99.90
33149;DHT22;19506;51.040;3.856;2023-02-28T22:33:18;17.20;99.90
33149;DHT22;19506;51.040;3.856;2023-02-28T22:35:44;17.20;99.90
33149;DHT22;19506;51.040;3.856;2023-02-28T22:38:10;17.20;99.90
33149;DHT22;19506;51.040;3.856;2023-02-28T22:40:36;17.30;99.90
33149;DHT22;19506;51.040;3.856;2023-02-28T22:43:02;17.50;99.90
33149;DHT22;19506;51.040;3.856;2023-02-28T22:45:28;17.50;99.90
33149;DHT22;19506;51.040;3.856;2023-02-28T22:47:54;17.50;99.90
33149;DHT22;19506;51.040;3.856;2023-02-28T22:50:19;17.50;99.90
33149;DHT22;19506;51.040;3.856;2023-02-28T22:52:45;17.40;99.90
33149;DHT22;19506;51.040;3.856;2023-02-28T22:55:11;17.30;99.90
33149;DHT22;19506;51.040;3.856;2023-02-28T22:57:36;17.20;99.90
33149;DHT22;19506;51.040;3.856;2023-02-28T23:00:05;17.20;99.90
33149;DHT22;19506;51.040;3.856;2023-02-28T23:02:32;17.20;99.90
33149;DHT22;19506;51.040;3.856;2023-02-28T23:04:57;17.10;99.90
33149;DHT22;19506;51.040;3.856;2023-02-28T23:07:23;17.10;99.90
33149;DHT22;19506;51.040;3.856;2023-02-28T23:09:49;17.10;99.90
33149;DHT22;19506;51.040;3.856;2023-02-28T23:12:16;17.00;99.90
33149;DHT22;19506;51.040;3.856;2023-02-28T23:14:42;17.10;99.90
33149;DHT22;19506;51.040;3.856;2023-02-28T23:17:08;17.00;99.90
33149;DHT22;19506;51.040;3.856;2023-02-28T23:19:34;17.00;99.90
33149;DHT22;19506;51.040;3.856;2023-02-28T23:22:01;17.00;99.90
33149;DHT22;19506;51.040;3.856;2023-02-28T23:24:30;17.10;99.90
33149;DHT22;19506;51.040;3.856;2023-02-28T23:26:57;17.10;99.90
33149;DHT22;19506;51.040;3.856;2023-02-28T23:29:24;17.10;99.90
33149;DHT22;19506;51.040;3.856;2023-02-28T23:31:50;17.10;99.90
33149;DHT22;19506;51.040;3.856;2023-02-28T23:34:16;17.10;99.90
33149;DHT22;19506;51.040;3.856;2023-02-28T23:36:49;17.10;99.90
33149;DHT22;19506;51.040;3.856;2023-02-28T23:39:15;17.00;99.90
33149;DHT22;19506;51.040;3.856;2023-02-28T23:41:40;17.00;99.90
33149;DHT22;19506;51.040;3.856;2023-02-28T23:44:06;17.00;99.90
33149;DHT22;19506;51.040;3.856;2023-02-28T23:46:32;17.00;99.90
33149;DHT22;19506;51.040;3.856;2023-02-28T23:48:58;17.00;99.90
33149;DHT22;19506;51.040;3.856;2023-02-28T23:51:24;16.90;99.90
33149;DHT22;19506;51.040;3.856;2023-02-28T23:53:50;16.90;99.90
33149;DHT22;19506;51.040;3.856;2023-02-28T23:56:22;16.90;99.90
33149;DHT22;19506;51.040;3.856;2023-02-28T23:58:49;16.90;99.90
